Terminal Aerodrome Forecast
Issued by NWS

Home | Current Version | Previous Version | Text Only | Print | Product List | Glossary On
Versions: 1 2 3 4 5 6 7 8 9 10 11 12 13 14 15 16 17 18
000
FTUS43 KABR 102320
TAFATY
TAF
KATY 102320Z 1100/1124 09010G18KT 1 1/2SM -SN OVC023
      TEMPO 1100/1104 1/2SM SN VV010
     FM111200 06008KT 3SM -SN OVC010
     FM111500 02005KT P6SM OVC010
     FM111700 33007KT P6SM OVC015
     FM112000 31012KT P6SM OVC008=

USA.gov is the U.S. government's official web portal to all federal, state and local government web resources and services.